sensor_id;sensor_type;location;lat;lon;timestamp;P1;durP1;ratioP1;P2;durP2;ratioP2
29688;SDS011;16600;47.444;8.334;2024-02-21T00:02:06;10.15;;;5.28;;
29688;SDS011;16600;47.444;8.334;2024-02-21T00:07:01;12.35;;;5.60;;
29688;SDS011;16600;47.444;8.334;2024-02-21T00:11:52;8.05;;;4.57;;
29688;SDS011;16600;47.444;8.334;2024-02-21T00:16:44;6.65;;;4.43;;
29688;SDS011;16600;47.444;8.334;2024-02-21T00:19:10;11.25;;;5.28;;
29688;SDS011;16600;47.444;8.334;2024-02-21T00:24:01;7.90;;;4.75;;
29688;SDS011;16600;47.444;8.334;2024-02-21T00:28:56;11.27;;;4.50;;
29688;SDS011;16600;47.444;8.334;2024-02-21T00:33:47;7.10;;;3.70;;
29688;SDS011;16600;47.444;8.334;2024-02-21T00:36:13;9.50;;;4.68;;
29688;SDS011;16600;47.444;8.334;2024-02-21T00:38:40;8.85;;;4.20;;
29688;SDS011;16600;47.444;8.334;2024-02-21T00:43:31;10.68;;;5.50;;
29688;SDS011;16600;47.444;8.334;2024-02-21T00:45:56;10.93;;;6.00;;
29688;SDS011;16600;47.444;8.334;2024-02-21T00:50:47;18.77;;;6.35;;
29688;SDS011;16600;47.444;8.334;2024-02-21T00:53:13;12.52;;;6.35;;
29688;SDS011;16600;47.444;8.334;2024-02-21T00:58:05;10.75;;;4.90;;
29688;SDS011;16600;47.444;8.334;2024-02-21T01:03:02;13.77;;;5.37;;
29688;SDS011;16600;47.444;8.334;2024-02-21T01:07:54;13.85;;;5.85;;
29688;SDS011;16600;47.444;8.334;2024-02-21T01:12:45;11.40;;;5.88;;
29688;SDS011;16600;47.444;8.334;2024-02-21T01:17:37;8.98;;;4.97;;
29688;SDS011;16600;47.444;8.334;2024-02-21T01:22:28;7.45;;;4.72;;
29688;SDS011;16600;47.444;8.334;2024-02-21T01:24:54;7.95;;;4.50;;
29688;SDS011;16600;47.444;8.334;2024-02-21T01:29:46;11.82;;;5.60;;
29688;SDS011;16600;47.444;8.334;2024-02-21T01:32:13;12.20;;;6.05;;
29688;SDS011;16600;47.444;8.334;2024-02-21T01:37:04;13.52;;;6.00;;
29688;SDS011;16600;47.444;8.334;2024-02-21T01:39:38;12.70;;;6.22;;
29688;SDS011;16600;47.444;8.334;2024-02-21T01:44:28;10.82;;;4.95;;
29688;SDS011;16600;47.444;8.334;2024-02-21T01:49:20;16.63;;;5.53;;
29688;SDS011;16600;47.444;8.334;2024-02-21T01:51:46;9.23;;;5.18;;
29688;SDS011;16600;47.444;8.334;2024-02-21T01:56:37;17.35;;;5.20;;
29688;SDS011;16600;47.444;8.334;2024-02-21T02:01:29;8.20;;;4.82;;
29688;SDS011;16600;47.444;8.334;2024-02-21T02:06:20;7.63;;;4.93;;
29688;SDS011;16600;47.444;8.334;2024-02-21T02:08:53;18.55;;;5.47;;
29688;SDS011;16600;47.444;8.334;2024-02-21T02:11:21;6.22;;;3.97;;
29688;SDS011;16600;47.444;8.334;2024-02-21T02:16:12;8.85;;;5.30;;
29688;SDS011;16600;47.444;8.334;2024-02-21T02:21:08;18.88;;;5.32;;
29688;SDS011;16600;47.444;8.334;2024-02-21T02:23:36;15.05;;;6.30;;
29688;SDS011;16600;47.444;8.334;2024-02-21T02:28:27;10.43;;;5.80;;
29688;SDS011;16600;47.444;8.334;2024-02-21T02:33:18;12.40;;;5.25;;
29688;SDS011;16600;47.444;8.334;2024-02-21T02:35:45;8.82;;;5.47;;
29688;SDS011;16600;47.444;8.334;2024-02-21T02:38:11;8.27;;;5.18;;
29688;SDS011;16600;47.444;8.334;2024-02-21T02:40:41;13.48;;;5.50;;
29688;SDS011;16600;47.444;8.334;2024-02-21T02:45:33;18.02;;;6.10;;
29688;SDS011;16600;47.444;8.334;2024-02-21T02:47:59;12.73;;;5.60;;
29688;SDS011;16600;47.444;8.334;2024-02-21T02:50:28;8.82;;;4.97;;
29688;SDS011;16600;47.444;8.334;2024-02-21T02:55:20;11.23;;;4.40;;
29688;SDS011;16600;47.444;8.334;2024-02-21T02:57:45;12.52;;;5.40;;
29688;SDS011;16600;47.444;8.334;2024-02-21T03:03:04;13.37;;;5.83;;
29688;SDS011;16600;47.444;8.334;2024-02-21T03:05:31;11.27;;;5.85;;
29688;SDS011;16600;47.444;8.334;2024-02-21T03:10:22;11.73;;;6.25;;
29688;SDS011;16600;47.444;8.334;2024-02-21T03:12:48;15.25;;;7.13;;
29688;SDS011;16600;47.444;8.334;2024-02-21T03:17:40;9.20;;;5.50;;
29688;SDS011;16600;47.444;8.334;2024-02-21T03:20:06;13.98;;;6.35;;
29688;SDS011;16600;47.444;8.334;2024-02-21T03:22:35;13.88;;;5.75;;
29688;SDS011;16600;47.444;8.334;2024-02-21T03:25:02;7.18;;;5.85;;
29688;SDS011;16600;47.444;8.334;2024-02-21T03:27:28;11.65;;;6.32;;
29688;SDS011;16600;47.444;8.334;2024-02-21T03:29:54;9.48;;;5.88;;
29688;SDS011;16600;47.444;8.334;2024-02-21T03:34:45;9.07;;;5.50;;
29688;SDS011;16600;47.444;8.334;2024-02-21T03:37:12;8.93;;;5.18;;
29688;SDS011;16600;47.444;8.334;2024-02-21T03:39:39;7.05;;;4.43;;
29688;SDS011;16600;47.444;8.334;2024-02-21T03:44:31;10.40;;;5.57;;
29688;SDS011;16600;47.444;8.334;2024-02-21T03:47:00;9.35;;;5.07;;
29688;SDS011;16600;47.444;8.334;2024-02-21T03:49:32;9.77;;;5.07;;
29688;SDS011;16600;47.444;8.334;2024-02-21T03:51:59;15.30;;;6.03;;
29688;SDS011;16600;47.444;8.334;2024-02-21T03:54:27;14.57;;;5.55;;
29688;SDS011;16600;47.444;8.334;2024-02-21T03:56:53;11.65;;;5.85;;
29688;SDS011;16600;47.444;8.334;2024-02-21T04:01:45;6.65;;;4.10;;
29688;SDS011;16600;47.444;8.334;2024-02-21T04:04:11;10.63;;;4.93;;
29688;SDS011;16600;47.444;8.334;2024-02-21T04:09:03;18.20;;;5.93;;
29688;SDS011;16600;47.444;8.334;2024-02-21T04:11:28;13.05;;;6.20;;
29688;SDS011;16600;47.444;8.334;2024-02-21T04:16:20;9.48;;;6.68;;
29688;SDS011;16600;47.444;8.334;2024-02-21T04:21:21;10.35;;;5.43;;
29688;SDS011;16600;47.444;8.334;2024-02-21T04:23:48;16.08;;;7.88;;
29688;SDS011;16600;47.444;8.334;2024-02-21T04:28:39;13.50;;;6.63;;
29688;SDS011;16600;47.444;8.334;2024-02-21T04:31:05;11.15;;;6.05;;
29688;SDS011;16600;47.444;8.334;2024-02-21T04:33:31;16.20;;;7.43;;
29688;SDS011;16600;47.444;8.334;2024-02-21T04:36:01;14.98;;;6.47;;
29688;SDS011;16600;47.444;8.334;2024-02-21T04:38:28;10.25;;;6.00;;
29688;SDS011;16600;47.444;8.334;2024-02-21T04:40:55;12.48;;;5.30;;
29688;SDS011;16600;47.444;8.334;2024-02-21T04:43:24;7.75;;;5.43;;
29688;SDS011;16600;47.444;8.334;2024-02-21T04:45:50;13.43;;;7.18;;
29688;SDS011;16600;47.444;8.334;2024-02-21T04:48:16;11.02;;;6.45;;
29688;SDS011;16600;47.444;8.334;2024-02-21T04:50:42;11.45;;;6.30;;
29688;SDS011;16600;47.444;8.334;2024-02-21T04:53:12;9.25;;;6.05;;
29688;SDS011;16600;47.444;8.334;2024-02-21T04:55:40;6.40;;;4.90;;
29688;SDS011;16600;47.444;8.334;2024-02-21T04:58:10;7.45;;;5.18;;
29688;SDS011;16600;47.444;8.334;2024-02-21T05:03:02;8.93;;;5.20;;
29688;SDS011;16600;47.444;8.334;2024-02-21T05:07:53;8.13;;;5.30;;
29688;SDS011;16600;47.444;8.334;2024-02-21T05:12:45;5.40;;;4.53;;
29688;SDS011;16600;47.444;8.334;2024-02-21T05:15:11;9.27;;;5.18;;
29688;SDS011;16600;47.444;8.334;2024-02-21T05:20:03;9.70;;;4.63;;
29688;SDS011;16600;47.444;8.334;2024-02-21T05:24:54;9.18;;;5.45;;
29688;SDS011;16600;47.444;8.334;2024-02-21T05:29:45;7.50;;;4.53;;
29688;SDS011;16600;47.444;8.334;2024-02-21T05:34:36;11.30;;;5.80;;
29688;SDS011;16600;47.444;8.334;2024-02-21T05:39:28;11.38;;;4.75;;
29688;SDS011;16600;47.444;8.334;2024-02-21T05:41:55;8.95;;;5.60;;
29688;SDS011;16600;47.444;8.334;2024-02-21T05:44:21;8.02;;;5.40;;
29688;SDS011;16600;47.444;8.334;2024-02-21T05:46:47;7.85;;;4.70;;
29688;SDS011;16600;47.444;8.334;2024-02-21T05:49:16;10.63;;;5.03;;
29688;SDS011;16600;47.444;8.334;2024-02-21T05:51:46;10.55;;;6.05;;
29688;SDS011;16600;47.444;8.334;2024-02-21T05:54:12;10.90;;;6.03;;
29688;SDS011;16600;47.444;8.334;2024-02-21T05:56:45;9.45;;;5.80;;
29688;SDS011;16600;47.444;8.334;2024-02-21T05:59:11;8.27;;;5.90;;
29688;SDS011;16600;47.444;8.334;2024-02-21T06:01:37;9.70;;;6.00;;
29688;SDS011;16600;47.444;8.334;2024-02-21T06:06:29;8.87;;;5.97;;
29688;SDS011;16600;47.444;8.334;2024-02-21T06:08:55;12.50;;;5.55;;
29688;SDS011;16600;47.444;8.334;2024-02-21T06:13:46;9.80;;;6.15;;
29688;SDS011;16600;47.444;8.334;2024-02-21T06:16:12;12.40;;;6.28;;
29688;SDS011;16600;47.444;8.334;2024-02-21T06:21:03;13.25;;;5.50;;
29688;SDS011;16600;47.444;8.334;2024-02-21T06:23:36;8.60;;;5.22;;
29688;SDS011;16600;47.444;8.334;2024-02-21T06:26:07;9.15;;;6.43;;
29688;SDS011;16600;47.444;8.334;2024-02-21T06:30:59;15.98;;;7.68;;
29688;SDS011;16600;47.444;8.334;2024-02-21T06:33:25;47.75;;;11.13;;
29688;SDS011;16600;47.444;8.334;2024-02-21T06:35:55;49.25;;;9.90;;
29688;SDS011;16600;47.444;8.334;2024-02-21T06:40:49;8.98;;;6.80;;
29688;SDS011;16600;47.444;8.334;2024-02-21T06:43:17;22.38;;;6.93;;
29688;SDS011;16600;47.444;8.334;2024-02-21T06:45:46;11.25;;;6.97;;
29688;SDS011;16600;47.444;8.334;2024-02-21T06:48:16;11.23;;;5.70;;
29688;SDS011;16600;47.444;8.334;2024-02-21T06:50:45;7.40;;;5.68;;
29688;SDS011;16600;47.444;8.334;2024-02-21T06:55:40;9.52;;;6.75;;
29688;SDS011;16600;47.444;8.334;2024-02-21T06:58:09;13.75;;;6.55;;
29688;SDS011;16600;47.444;8.334;2024-02-21T07:03:05;14.57;;;6.53;;
29688;SDS011;16600;47.444;8.334;2024-02-21T07:07:56;8.32;;;5.53;;
29688;SDS011;16600;47.444;8.334;2024-02-21T07:12:46;7.43;;;4.65;;
29688;SDS011;16600;47.444;8.334;2024-02-21T07:15:12;8.73;;;4.93;;
29688;SDS011;16600;47.444;8.334;2024-02-21T07:17:38;4.93;;;4.18;;
29688;SDS011;16600;47.444;8.334;2024-02-21T07:22:29;6.70;;;3.63;;
29688;SDS011;16600;47.444;8.334;2024-02-21T07:24:59;6.78;;;4.03;;
29688;SDS011;16600;47.444;8.334;2024-02-21T07:27:30;6.72;;;3.88;;
29688;SDS011;16600;47.444;8.334;2024-02-21T07:29:57;8.52;;;4.07;;
29688;SDS011;16600;47.444;8.334;2024-02-21T07:34:48;6.60;;;4.22;;
29688;SDS011;16600;47.444;8.334;2024-02-21T07:39:39;8.73;;;4.28;;
29688;SDS011;16600;47.444;8.334;2024-02-21T07:44:31;9.02;;;4.88;;
29688;SDS011;16600;47.444;8.334;2024-02-21T07:46:57;13.18;;;5.43;;
29688;SDS011;16600;47.444;8.334;2024-02-21T07:51:48;12.75;;;5.28;;
29688;SDS011;16600;47.444;8.334;2024-02-21T07:54:14;8.45;;;5.28;;
29688;SDS011;16600;47.444;8.334;2024-02-21T07:59:05;7.90;;;4.93;;
29688;SDS011;16600;47.444;8.334;2024-02-21T08:01:31;11.18;;;5.32;;
29688;SDS011;16600;47.444;8.334;2024-02-21T08:03:57;9.70;;;5.28;;
29688;SDS011;16600;47.444;8.334;2024-02-21T08:06:24;11.40;;;5.88;;
29688;SDS011;16600;47.444;8.334;2024-02-21T08:08:49;13.02;;;6.40;;
29688;SDS011;16600;47.444;8.334;2024-02-21T08:13:40;12.20;;;4.93;;
29688;SDS011;16600;47.444;8.334;2024-02-21T08:16:06;10.00;;;4.95;;
29688;SDS011;16600;47.444;8.334;2024-02-21T08:18:39;8.60;;;5.47;;
29688;SDS011;16600;47.444;8.334;2024-02-21T08:21:05;10.35;;;4.90;;
29688;SDS011;16600;47.444;8.334;2024-02-21T08:23:33;13.57;;;5.05;;
29688;SDS011;16600;47.444;8.334;2024-02-21T08:26:02;15.75;;;6.10;;
29688;SDS011;16600;47.444;8.334;2024-02-21T08:28:37;9.77;;;5.22;;
29688;SDS011;16600;47.444;8.334;2024-02-21T08:31:04;7.95;;;5.55;;
29688;SDS011;16600;47.444;8.334;2024-02-21T08:33:30;10.30;;;5.80;;
29688;SDS011;16600;47.444;8.334;2024-02-21T08:35:56;8.18;;;5.40;;
29688;SDS011;16600;47.444;8.334;2024-02-21T08:40:53;7.78;;;4.60;;
29688;SDS011;16600;47.444;8.334;2024-02-21T08:43:19;9.70;;;4.57;;
29688;SDS011;16600;47.444;8.334;2024-02-21T08:45:45;8.68;;;4.88;;
29688;SDS011;16600;47.444;8.334;2024-02-21T08:48:18;9.82;;;4.63;;
29688;SDS011;16600;47.444;8.334;2024-02-21T08:50:43;6.18;;;4.57;;
29688;SDS011;16600;47.444;8.334;2024-02-21T08:53:09;5.28;;;3.80;;
29688;SDS011;16600;47.444;8.334;2024-02-21T08:58:00;16.00;;;4.18;;
29688;SDS011;16600;47.444;8.334;2024-02-21T09:03:04;8.40;;;4.00;;
29688;SDS011;16600;47.444;8.334;2024-02-21T09:05:30;6.47;;;3.40;;
29688;SDS011;16600;47.444;8.334;2024-02-21T09:08:00;3.55;;;2.80;;
29688;SDS011;16600;47.444;8.334;2024-02-21T09:10:30;3.90;;;3.13;;
29688;SDS011;16600;47.444;8.334;2024-02-21T09:13:00;5.13;;;3.10;;
29688;SDS011;16600;47.444;8.334;2024-02-21T09:15:26;3.83;;;2.78;;
29688;SDS011;16600;47.444;8.334;2024-02-21T09:17:55;6.30;;;3.08;;
29688;SDS011;16600;47.444;8.334;2024-02-21T09:20:21;3.45;;;3.00;;
29688;SDS011;16600;47.444;8.334;2024-02-21T09:22:50;4.28;;;2.60;;
29688;SDS011;16600;47.444;8.334;2024-02-21T09:25:18;4.15;;;2.67;;
29688;SDS011;16600;47.444;8.334;2024-02-21T09:27:48;4.90;;;2.97;;
29688;SDS011;16600;47.444;8.334;2024-02-21T09:30:17;5.40;;;3.47;;
29688;SDS011;16600;47.444;8.334;2024-02-21T09:32:44;4.60;;;2.28;;
29688;SDS011;16600;47.444;8.334;2024-02-21T09:35:11;7.63;;;3.10;;
29688;SDS011;16600;47.444;8.334;2024-02-21T09:37:40;4.00;;;3.30;;
29688;SDS011;16600;47.444;8.334;2024-02-21T09:40:07;4.28;;;3.10;;
29688;SDS011;16600;47.444;8.334;2024-02-21T09:42:41;5.57;;;3.33;;
29688;SDS011;16600;47.444;8.334;2024-02-21T09:45:20;6.00;;;3.35;;
29688;SDS011;16600;47.444;8.334;2024-02-21T09:47:57;4.72;;;3.13;;
29688;SDS011;16600;47.444;8.334;2024-02-21T09:50:31;3.72;;;2.88;;
29688;SDS011;16600;47.444;8.334;2024-02-21T09:53:03;4.07;;;3.08;;
29688;SDS011;16600;47.444;8.334;2024-02-21T09:55:31;6.65;;;3.15;;
29688;SDS011;16600;47.444;8.334;2024-02-21T09:58:07;4.75;;;3.17;;
29688;SDS011;16600;47.444;8.334;2024-02-21T10:00:36;4.15;;;2.83;;
29688;SDS011;16600;47.444;8.334;2024-02-21T10:03:07;4.97;;;3.35;;
29688;SDS011;16600;47.444;8.334;2024-02-21T10:05:37;7.55;;;2.50;;
29688;SDS011;16600;47.444;8.334;2024-02-21T10:08:04;4.57;;;2.95;;
29688;SDS011;16600;47.444;8.334;2024-02-21T10:10:30;3.75;;;3.10;;
29688;SDS011;16600;47.444;8.334;2024-02-21T10:12:56;4.07;;;2.83;;
29688;SDS011;16600;47.444;8.334;2024-02-21T10:15:23;4.63;;;3.13;;
29688;SDS011;16600;47.444;8.334;2024-02-21T10:17:57;6.63;;;3.22;;
29688;SDS011;16600;47.444;8.334;2024-02-21T10:20:27;3.88;;;2.90;;
29688;SDS011;16600;47.444;8.334;2024-02-21T10:23:03;4.72;;;2.80;;
29688;SDS011;16600;47.444;8.334;2024-02-21T10:25:36;7.45;;;3.50;;
29688;SDS011;16600;47.444;8.334;2024-02-21T10:30:36;4.93;;;3.03;;
29688;SDS011;16600;47.444;8.334;2024-02-21T10:33:07;5.68;;;2.95;;
29688;SDS011;16600;47.444;8.334;2024-02-21T10:35:33;5.80;;;3.55;;
29688;SDS011;16600;47.444;8.334;2024-02-21T10:38:03;5.28;;;2.70;;
29688;SDS011;16600;47.444;8.334;2024-02-21T10:40:29;4.07;;;2.78;;
29688;SDS011;16600;47.444;8.334;2024-02-21T10:43:01;6.28;;;2.67;;
29688;SDS011;16600;47.444;8.334;2024-02-21T10:45:34;22.42;;;3.72;;
29688;SDS011;16600;47.444;8.334;2024-02-21T10:48:13;4.97;;;2.80;;
29688;SDS011;16600;47.444;8.334;2024-02-21T10:50:47;4.40;;;2.92;;
29688;SDS011;16600;47.444;8.334;2024-02-21T10:56:14;4.88;;;3.30;;
29688;SDS011;16600;47.444;8.334;2024-02-21T10:58:42;3.70;;;3.13;;
29688;SDS011;16600;47.444;8.334;2024-02-21T11:03:03;4.97;;;3.60;;
29688;SDS011;16600;47.444;8.334;2024-02-21T11:05:30;3.35;;;2.75;;
29688;SDS011;16600;47.444;8.334;2024-02-21T11:08:00;6.05;;;3.15;;
29688;SDS011;16600;47.444;8.334;2024-02-21T11:10:29;4.18;;;3.60;;
29688;SDS011;16600;47.444;8.334;2024-02-21T11:13:07;3.75;;;3.45;;
29688;SDS011;16600;47.444;8.334;2024-02-21T11:15:33;7.75;;;3.33;;
29688;SDS011;16600;47.444;8.334;2024-02-21T11:17:59;4.47;;;3.05;;
29688;SDS011;16600;47.444;8.334;2024-02-21T11:23:00;6.80;;;3.25;;
29688;SDS011;16600;47.444;8.334;2024-02-21T11:25:29;4.43;;;3.15;;
29688;SDS011;16600;47.444;8.334;2024-02-21T11:28:02;3.63;;;2.57;;
29688;SDS011;16600;47.444;8.334;2024-02-21T11:30:32;4.90;;;3.25;;
29688;SDS011;16600;47.444;8.334;2024-02-21T11:33:01;5.28;;;2.58;;
29688;SDS011;16600;47.444;8.334;2024-02-21T11:35:31;7.25;;;2.63;;
29688;SDS011;16600;47.444;8.334;2024-02-21T11:38:08;7.13;;;2.83;;
29688;SDS011;16600;47.444;8.334;2024-02-21T11:40:38;5.18;;;2.90;;
29688;SDS011;16600;47.444;8.334;2024-02-21T11:43:07;3.88;;;2.88;;
29688;SDS011;16600;47.444;8.334;2024-02-21T11:45:33;3.53;;;2.75;;
29688;SDS011;16600;47.444;8.334;2024-02-21T11:48:08;6.18;;;3.25;;
29688;SDS011;16600;47.444;8.334;2024-02-21T11:50:37;4.13;;;2.33;;
29688;SDS011;16600;47.444;8.334;2024-02-21T11:53:09;4.65;;;2.83;;
29688;SDS011;16600;47.444;8.334;2024-02-21T11:55:37;4.60;;;2.50;;
29688;SDS011;16600;47.444;8.334;2024-02-21T11:58:06;3.38;;;2.60;;
29688;SDS011;16600;47.444;8.334;2024-02-21T12:00:32;4.13;;;2.67;;
29688;SDS011;16600;47.444;8.334;2024-02-21T12:03:03;4.50;;;2.50;;
29688;SDS011;16600;47.444;8.334;2024-02-21T12:05:33;3.17;;;2.58;;
29688;SDS011;16600;47.444;8.334;2024-02-21T12:08:08;4.00;;;2.45;;
29688;SDS011;16600;47.444;8.334;2024-02-21T12:10:37;2.80;;;1.65;;
29688;SDS011;16600;47.444;8.334;2024-02-21T12:13:10;3.75;;;2.10;;
29688;SDS011;16600;47.444;8.334;2024-02-21T12:15:40;2.80;;;1.85;;
29688;SDS011;16600;47.444;8.334;2024-02-21T12:18:06;2.47;;;1.80;;
29688;SDS011;16600;47.444;8.334;2024-02-21T12:20:32;2.30;;;1.90;;
29688;SDS011;16600;47.444;8.334;2024-02-21T12:23:02;2.28;;;1.50;;
29688;SDS011;16600;47.444;8.334;2024-02-21T12:25:30;2.22;;;1.70;;
29688;SDS011;16600;47.444;8.334;2024-02-21T12:28:05;1.75;;;1.27;;
29688;SDS011;16600;47.444;8.334;2024-02-21T12:30:34;5.55;;;1.45;;
29688;SDS011;16600;47.444;8.334;2024-02-21T12:33:06;3.78;;;1.90;;
29688;SDS011;16600;47.444;8.334;2024-02-21T12:35:35;1.60;;;1.40;;
29688;SDS011;16600;47.444;8.334;2024-02-21T12:38:07;3.00;;;1.60;;
29688;SDS011;16600;47.444;8.334;2024-02-21T12:40:36;1.88;;;1.17;;
29688;SDS011;16600;47.444;8.334;2024-02-21T12:43:03;6.28;;;1.75;;
29688;SDS011;16600;47.444;8.334;2024-02-21T12:45:30;4.50;;;1.92;;
29688;SDS011;16600;47.444;8.334;2024-02-21T12:47:56;2.03;;;1.38;;
29688;SDS011;16600;47.444;8.334;2024-02-21T12:50:23;2.35;;;1.35;;
29688;SDS011;16600;47.444;8.334;2024-02-21T12:52:50;2.05;;;1.33;;
29688;SDS011;16600;47.444;8.334;2024-02-21T12:55:19;1.52;;;1.30;;
29688;SDS011;16600;47.444;8.334;2024-02-21T12:57:46;1.52;;;1.15;;
29688;SDS011;16600;47.444;8.334;2024-02-21T13:03:03;3.53;;;1.40;;
29688;SDS011;16600;47.444;8.334;2024-02-21T13:05:29;2.10;;;1.35;;
29688;SDS011;16600;47.444;8.334;2024-02-21T13:07:58;1.45;;;1.35;;
29688;SDS011;16600;47.444;8.334;2024-02-21T13:10:24;2.20;;;1.38;;
29688;SDS011;16600;47.444;8.334;2024-02-21T13:12:51;1.25;;;1.05;;
29688;SDS011;16600;47.444;8.334;2024-02-21T13:15:16;1.50;;;1.38;;
29688;SDS011;16600;47.444;8.334;2024-02-21T13:17:46;1.85;;;1.50;;
29688;SDS011;16600;47.444;8.334;2024-02-21T13:20:11;2.72;;;1.65;;
29688;SDS011;16600;47.444;8.334;2024-02-21T13:22:37;2.17;;;1.45;;
29688;SDS011;16600;47.444;8.334;2024-02-21T13:25:06;1.52;;;1.42;;
29688;SDS011;16600;47.444;8.334;2024-02-21T13:27:33;1.77;;;1.50;;
29688;SDS011;16600;47.444;8.334;2024-02-21T13:29:59;2.85;;;1.75;;
29688;SDS011;16600;47.444;8.334;2024-02-21T13:32:31;1.52;;;1.30;;
29688;SDS011;16600;47.444;8.334;2024-02-21T13:34:57;1.92;;;1.40;;
29688;SDS011;16600;47.444;8.334;2024-02-21T13:37:26;8.00;;;1.70;;
29688;SDS011;16600;47.444;8.334;2024-02-21T13:39:54;1.50;;;1.40;;
29688;SDS011;16600;47.444;8.334;2024-02-21T13:42:21;3.10;;;1.35;;
29688;SDS011;16600;47.444;8.334;2024-02-21T13:44:46;1.67;;;1.52;;
29688;SDS011;16600;47.444;8.334;2024-02-21T13:47:15;2.20;;;1.20;;
29688;SDS011;16600;47.444;8.334;2024-02-21T13:49:41;1.65;;;1.25;;
29688;SDS011;16600;47.444;8.334;2024-02-21T13:52:08;8.05;;;2.10;;
29688;SDS011;16600;47.444;8.334;2024-02-21T13:54:37;2.00;;;1.50;;
29688;SDS011;16600;47.444;8.334;2024-02-21T13:57:03;2.58;;;1.95;;
29688;SDS011;16600;47.444;8.334;2024-02-21T13:59:29;2.22;;;1.45;;
29688;SDS011;16600;47.444;8.334;2024-02-21T14:01:59;1.70;;;1.48;;
29688;SDS011;16600;47.444;8.334;2024-02-21T14:04:25;2.30;;;1.60;;
29688;SDS011;16600;47.444;8.334;2024-02-21T14:06:51;1.92;;;1.38;;
29688;SDS011;16600;47.444;8.334;2024-02-21T14:09:20;5.15;;;1.73;;
29688;SDS011;16600;47.444;8.334;2024-02-21T14:11:50;1.40;;;1.30;;
29688;SDS011;16600;47.444;8.334;2024-02-21T14:14:16;1.75;;;1.30;;
29688;SDS011;16600;47.444;8.334;2024-02-21T14:16:42;1.20;;;1.10;;
29688;SDS011;16600;47.444;8.334;2024-02-21T14:19:13;2.50;;;1.40;;
29688;SDS011;16600;47.444;8.334;2024-02-21T14:21:39;3.60;;;1.35;;
29688;SDS011;16600;47.444;8.334;2024-02-21T14:24:06;4.03;;;1.85;;
29688;SDS011;16600;47.444;8.334;2024-02-21T14:26:35;2.75;;;1.63;;
29688;SDS011;16600;47.444;8.334;2024-02-21T14:29:05;2.05;;;1.42;;
29688;SDS011;16600;47.444;8.334;2024-02-21T14:31:38;1.88;;;1.23;;
29688;SDS011;16600;47.444;8.334;2024-02-21T14:34:04;2.92;;;1.73;;
29688;SDS011;16600;47.444;8.334;2024-02-21T14:36:34;1.95;;;1.55;;
29688;SDS011;16600;47.444;8.334;2024-02-21T14:39:03;3.88;;;2.00;;
29688;SDS011;16600;47.444;8.334;2024-02-21T14:41:33;4.43;;;1.17;;
29688;SDS011;16600;47.444;8.334;2024-02-21T14:44:01;1.50;;;1.40;;
29688;SDS011;16600;47.444;8.334;2024-02-21T14:46:28;1.50;;;1.40;;
29688;SDS011;16600;47.444;8.334;2024-02-21T14:48:58;3.17;;;1.90;;
29688;SDS011;16600;47.444;8.334;2024-02-21T14:51:24;1.50;;;1.30;;
29688;SDS011;16600;47.444;8.334;2024-02-21T14:53:58;3.03;;;1.50;;
29688;SDS011;16600;47.444;8.334;2024-02-21T14:56:26;3.70;;;1.85;;
29688;SDS011;16600;47.444;8.334;2024-02-21T14:58:57;3.92;;;1.60;;
29688;SDS011;16600;47.444;8.334;2024-02-21T15:03:04;1.60;;;1.50;;
29688;SDS011;16600;47.444;8.334;2024-02-21T15:05:34;3.20;;;1.60;;
29688;SDS011;16600;47.444;8.334;2024-02-21T15:08:05;2.45;;;1.67;;
29688;SDS011;16600;47.444;8.334;2024-02-21T15:10:34;3.90;;;1.88;;
29688;SDS011;16600;47.444;8.334;2024-02-21T15:13:03;5.80;;;1.67;;
29688;SDS011;16600;47.444;8.334;2024-02-21T15:15:32;7.68;;;1.70;;
29688;SDS011;16600;47.444;8.334;2024-02-21T15:18:01;2.72;;;1.63;;
29688;SDS011;16600;47.444;8.334;2024-02-21T15:20:28;2.10;;;1.60;;
29688;SDS011;16600;47.444;8.334;2024-02-21T15:22:58;2.13;;;1.80;;
29688;SDS011;16600;47.444;8.334;2024-02-21T15:25:24;2.72;;;2.10;;
29688;SDS011;16600;47.444;8.334;2024-02-21T15:27:59;3.67;;;2.00;;
29688;SDS011;16600;47.444;8.334;2024-02-21T15:30:31;2.28;;;1.55;;
29688;SDS011;16600;47.444;8.334;2024-02-21T15:33:06;2.23;;;1.80;;
29688;SDS011;16600;47.444;8.334;2024-02-21T15:35:32;2.03;;;1.60;;
29688;SDS011;16600;47.444;8.334;2024-02-21T15:37:59;2.72;;;1.70;;
29688;SDS011;16600;47.444;8.334;2024-02-21T15:40:45;3.10;;;1.98;;
29688;SDS011;16600;47.444;8.334;2024-02-21T15:43:14;1.98;;;1.77;;
29688;SDS011;16600;47.444;8.334;2024-02-21T15:45:40;3.85;;;2.10;;
29688;SDS011;16600;47.444;8.334;2024-02-21T15:48:07;2.97;;;2.33;;
29688;SDS011;16600;47.444;8.334;2024-02-21T15:50:39;3.13;;;2.50;;
29688;SDS011;16600;47.444;8.334;2024-02-21T15:53:18;3.40;;;2.25;;
29688;SDS011;16600;47.444;8.334;2024-02-21T15:55:45;3.22;;;1.85;;
29688;SDS011;16600;47.444;8.334;2024-02-21T15:58:15;5.40;;;2.92;;
29688;SDS011;16600;47.444;8.334;2024-02-21T16:00:47;6.20;;;2.75;;
29688;SDS011;16600;47.444;8.334;2024-02-21T16:03:16;4.50;;;2.25;;
29688;SDS011;16600;47.444;8.334;2024-02-21T16:05:42;5.57;;;2.75;;
29688;SDS011;16600;47.444;8.334;2024-02-21T16:08:09;3.58;;;2.38;;
29688;SDS011;16600;47.444;8.334;2024-02-21T16:10:35;3.00;;;2.28;;
29688;SDS011;16600;47.444;8.334;2024-02-21T16:13:01;5.80;;;3.40;;
29688;SDS011;16600;47.444;8.334;2024-02-21T16:15:28;2.92;;;2.47;;
29688;SDS011;16600;47.444;8.334;2024-02-21T16:17:57;6.60;;;2.55;;
29688;SDS011;16600;47.444;8.334;2024-02-21T16:20:27;3.15;;;2.45;;
29688;SDS011;16600;47.444;8.334;2024-02-21T16:22:53;3.08;;;2.55;;
29688;SDS011;16600;47.444;8.334;2024-02-21T16:25:20;4.13;;;2.38;;
29688;SDS011;16600;47.444;8.334;2024-02-21T16:27:51;7.20;;;3.17;;
29688;SDS011;16600;47.444;8.334;2024-02-21T16:30:35;4.28;;;3.00;;
29688;SDS011;16600;47.444;8.334;2024-02-21T16:33:04;4.85;;;3.25;;
29688;SDS011;16600;47.444;8.334;2024-02-21T16:35:37;4.78;;;2.80;;
29688;SDS011;16600;47.444;8.334;2024-02-21T16:38:05;4.00;;;3.22;;
29688;SDS011;16600;47.444;8.334;2024-02-21T16:40:37;5.22;;;3.22;;
29688;SDS011;16600;47.444;8.334;2024-02-21T16:43:04;5.32;;;3.15;;
29688;SDS011;16600;47.444;8.334;2024-02-21T16:45:31;4.22;;;2.90;;
29688;SDS011;16600;47.444;8.334;2024-02-21T16:47:57;3.40;;;2.88;;
29688;SDS011;16600;47.444;8.334;2024-02-21T16:50:29;5.53;;;3.15;;
29688;SDS011;16600;47.444;8.334;2024-02-21T16:52:57;6.07;;;2.75;;
29688;SDS011;16600;47.444;8.334;2024-02-21T16:55:26;3.05;;;2.58;;
29688;SDS011;16600;47.444;8.334;2024-02-21T16:57:52;9.73;;;3.42;;
29688;SDS011;16600;47.444;8.334;2024-02-21T17:03:06;4.73;;;2.73;;
29688;SDS011;16600;47.444;8.334;2024-02-21T17:05:41;3.92;;;2.40;;
29688;SDS011;16600;47.444;8.334;2024-02-21T17:08:07;3.38;;;2.25;;
29688;SDS011;16600;47.444;8.334;2024-02-21T17:10:37;5.10;;;3.05;;
29688;SDS011;16600;47.444;8.334;2024-02-21T17:13:05;3.63;;;2.13;;
29688;SDS011;16600;47.444;8.334;2024-02-21T17:15:34;3.80;;;2.60;;
29688;SDS011;16600;47.444;8.334;2024-02-21T17:18:03;4.50;;;2.10;;
29688;SDS011;16600;47.444;8.334;2024-02-21T17:20:30;4.75;;;2.78;;
29688;SDS011;16600;47.444;8.334;2024-02-21T17:23:00;11.38;;;3.13;;
29688;SDS011;16600;47.444;8.334;2024-02-21T17:25:28;3.97;;;2.05;;
29688;SDS011;16600;47.444;8.334;2024-02-21T17:27:55;4.18;;;2.58;;
29688;SDS011;16600;47.444;8.334;2024-02-21T17:30:21;3.78;;;2.40;;
29688;SDS011;16600;47.444;8.334;2024-02-21T17:32:50;5.82;;;2.17;;
29688;SDS011;16600;47.444;8.334;2024-02-21T17:35:17;3.38;;;1.90;;
29688;SDS011;16600;47.444;8.334;2024-02-21T17:37:43;4.45;;;2.47;;
29688;SDS011;16600;47.444;8.334;2024-02-21T17:40:12;4.80;;;2.47;;
29688;SDS011;16600;47.444;8.334;2024-02-21T17:42:41;3.17;;;2.60;;
29688;SDS011;16600;47.444;8.334;2024-02-21T17:45:08;10.63;;;3.42;;